BON139 FAGG-FACT
Flight info
| Callsign | BON139 |
|---|---|
| Flight time | N/A |
| Altitude | 24000 |
| Route | APGUP DCT ETBUL UQ49 ESRUK UQ51 GETEN GETEN1B |
| Aircraft | A320/M-SDE3FGHIRWY/LB1 |
Departure
| Time | 2026-05-05 16:03 |
|---|---|
| Airport | George Airport (FAGG) |
Arrival
| Time | N/A |
|---|---|
| Airport | Cape Town International Airport (FACT) |
| Time | Latitude | Longitude | Altitude | Speed | Heading |
|---|---|---|---|---|---|
| 2026-05-05 15:43 | -34.00203 | 22.38123 | 640 ft | 0 kts | 56° |
| 2026-05-05 15:56 | -34.00204 | 22.38122 | 639 ft | 2 kts | 56° |
| 2026-05-05 15:56 | -34.00217 | 22.38096 | 642 ft | 4 kts | 69° |
| 2026-05-05 15:57 | -34.00221 | 22.38066 | 641 ft | 4 kts | 111° |
| 2026-05-05 15:57 | -34.00214 | 22.38052 | 643 ft | 0 kts | 148° |
| 2026-05-05 15:59 | -34.00215 | 22.38053 | 643 ft | 0 kts | 148° |
| 2026-05-05 15:59 | -34.00222 | 22.38058 | 642 ft | 4 kts | 149° |
| 2026-05-05 15:59 | -34.00294 | 22.38143 | 644 ft | 21 kts | 122° |
| 2026-05-05 16:00 | -34.00326 | 22.38301 | 645 ft | 20 kts | 90° |
| 2026-05-05 16:00 | -34.00322 | 22.38481 | 646 ft | 22 kts | 88° |
| 2026-05-05 16:00 | -34.00319 | 22.38672 | 647 ft | 23 kts | 89° |
| 2026-05-05 16:00 | -34.00317 | 22.38855 | 650 ft | 17 kts | 103° |
| 2026-05-05 16:01 | -34.00401 | 22.38916 | 657 ft | 13 kts | 179° |
| 2026-05-05 16:01 | -34.00420 | 22.38917 | 660 ft | 0 kts | 179° |
| 2026-05-05 16:01 | -34.00463 | 22.38918 | 657 ft | 11 kts | 178° |
| 2026-05-05 16:02 | -34.00522 | 22.38875 | 656 ft | 12 kts | 265° |
| 2026-05-05 16:02 | -34.00524 | 22.38734 | 654 ft | 33 kts | 268° |
| 2026-05-05 16:02 | -34.00542 | 22.38147 | 653 ft | 102 kts | 268° |
| 2026-05-05 16:02 | -34.00575 | 22.37093 | 674 ft | 147 kts | 267° |
| 2026-05-05 16:03 | -34.00612 | 22.35878 | 1229 ft | 142 kts | 264° |
| 2026-05-05 16:03 | -34.00647 | 22.34674 | 1735 ft | 146 kts | 265° |
| 2026-05-05 16:03 | -34.00685 | 22.33460 | 2312 ft | 146 kts | 264° |
| 2026-05-05 16:03 | -34.00744 | 22.32166 | 2569 ft | 165 kts | 263° |
| 2026-05-05 16:04 | -34.00820 | 22.30681 | 2817 ft | 189 kts | 263° |
| 2026-05-05 16:04 | -34.00865 | 22.29008 | 3058 ft | 212 kts | 267° |
| 2026-05-05 16:04 | -34.00865 | 22.27151 | 3424 ft | 232 kts | 268° |
| 2026-05-05 16:04 | -34.00850 | 22.25120 | 3875 ft | 254 kts | 268° |
| 2026-05-05 16:05 | -34.00827 | 22.22943 | 4666 ft | 264 kts | 268° |
| 2026-05-05 16:05 | -34.00803 | 22.20703 | 5556 ft | 270 kts | 268° |
| 2026-05-05 16:05 | -34.00780 | 22.18425 | 6441 ft | 275 kts | 268° |
| 2026-05-05 16:05 | -34.00760 | 22.16089 | 6863 ft | 280 kts | 268° |
| 2026-05-05 16:06 | -34.00739 | 22.13740 | 7003 ft | 280 kts | 268° |
| 2026-05-05 16:06 | -34.00717 | 22.11397 | 7025 ft | 280 kts | 268° |
| 2026-05-05 16:06 | -34.00696 | 22.09047 | 7036 ft | 280 kts | 268° |
| 2026-05-05 16:06 | -34.00677 | 22.06704 | 7040 ft | 279 kts | 268° |
| 2026-05-05 16:07 | -34.00659 | 22.04361 | 7047 ft | 280 kts | 268° |
| 2026-05-05 16:07 | -34.00641 | 22.02019 | 7048 ft | 280 kts | 268° |
| 2026-05-05 16:07 | -34.00621 | 21.99705 | 7052 ft | 279 kts | 268° |
| 2026-05-05 16:07 | -34.00599 | 21.97367 | 7054 ft | 279 kts | 269° |
| 2026-05-05 16:08 | -34.00576 | 21.95030 | 7064 ft | 279 kts | 269° |
| 2026-05-05 16:08 | -34.00552 | 21.92689 | 7062 ft | 279 kts | 268° |
| 2026-05-05 16:08 | -34.00529 | 21.90350 | 7061 ft | 279 kts | 269° |
| 2026-05-05 16:08 | -34.00507 | 21.88012 | 7059 ft | 279 kts | 269° |
| 2026-05-05 16:09 | -34.00483 | 21.85678 | 7062 ft | 279 kts | 269° |
| 2026-05-05 16:09 | -34.00459 | 21.83340 | 7061 ft | 279 kts | 269° |
| 2026-05-05 16:09 | -34.00434 | 21.81005 | 7060 ft | 278 kts | 269° |
| 2026-05-05 16:09 | -34.00409 | 21.78677 | 7062 ft | 278 kts | 269° |
| 2026-05-05 16:10 | -34.00384 | 21.76346 | 7063 ft | 278 kts | 269° |
| 2026-05-05 16:10 | -34.00360 | 21.74014 | 7099 ft | 280 kts | 269° |
| 2026-05-05 16:10 | -34.00335 | 21.71648 | 7874 ft | 283 kts | 269° |
| 2026-05-05 16:10 | -34.00308 | 21.69268 | 8805 ft | 285 kts | 270° |
| 2026-05-05 16:11 | -34.00280 | 21.66863 | 9644 ft | 290 kts | 270° |
| 2026-05-05 16:11 | -34.00191 | 21.58975 | 10884 ft | 343 kts | 271° |
| 2026-05-05 16:12 | -34.00153 | 21.56072 | 11513 ft | 350 kts | 271° |
| 2026-05-05 16:12 | -34.00073 | 21.50165 | 12992 ft | 355 kts | 272° |